CYFB

Iqaluit Airport

Iqaluit, Canada
METAR CYFB 182100Z 32011KT 30SM FEW020 SCT058 BKN098 14/08 A2966 RMK SC1SC3AC3 SC TR CU ASOCTD SLP046 DENSITY ALT 400FT
Observed Flight Rules
Aug-18 @ 21:00 UTC (55 minutes ago) Visual Flight Rules
Wind Visibility Clouds
320° at 11 knots 30 miles
  • Few at 2,000' AGL
  • Scattered at 5,800' AGL
  • Broken at 9,800' AGL
Temperatures Readings
Current 14°C / 57°F
Dewpoint 8°C / 46°F
Humidity 67%
Altimeter 29.66" Hg
Pressure 1004.6 hPa
Elevation 34
METAR CYFB 182100Z 32011KT 30SM FEW020 SCT058 BKN098 14/08 A2966 RMK SC1SC3AC3 SC TR CU ASOCTD SLP046 DENSITY ALT 400FT
Observed Flight Rules
Aug-18 @ 21:00 UTC
(55 minutes ago)
VFR
Wind Visibility
320° at 11 knots 30 miles
Clouds
  • Few at 2,000' AGL
  • Scattered at 5,800' AGL
  • Broken at 9,800' AGL
Temperature Dewpoint
14°C / 57°F 8°C / 46°F
Humidity Altimeter Pressure
67% 29.66" Hg 1004.6 hPa